Flight Track Log - Related Links

Times and Time Zones

All times are in EDT time to prevent confusion due to time zone crossing. See the N4113B flight status page for this flight to view local times or setup timezone preferences in your user account.

Time Position Orientation Groundspeed Altitude Reporting Facility
EDT Latitude Longitude Course Direction KTS MPH feet Rate Location/Type
Tue 12:49:06 PM 41.0817 -71.8453 249° West 183 211 6,400  Level Boston Center
Tue 12:50:10 PM 41.0653 -71.9006 249° West 166 191 6,400 70 Level Boston Center
Tue 12:51:57 PM 41.0500 -72.0167 260° West 172 198 6,600 36 Climbing New York TRACON
Tue 12:52:57 PM 41.0333 -72.0667 246° West 175 201 6,500 -50 Descending New York TRACON
Tue 12:53:57 PM 41.0167 -72.1333 252° West 175 201 6,500  Level New York TRACON
Tue 12:54:57 PM 41.0000 -72.2000 252° West 178 205 6,500  Level New York TRACON
Tue 12:55:57 PM 40.9833 -72.2500 246° West 174 200 6,500  Level New York TRACON
Tue 12:56:57 PM 40.9667 -72.3167 252° West 171 197 6,500 50 Level New York TRACON
Tue 12:57:57 PM 40.9500 -72.3833 252° West 170 196 6,600 50 Climbing New York TRACON
Tue 12:58:57 PM 40.9500 -72.4333 270° West 172 198 6,600  Level New York TRACON
Tue 12:59:57 PM 40.9333 -72.5000 252° West 170 196 6,600  Level New York TRACON
Tue 01:01:03 PM 40.9167 -72.5667 252° West 171 197 6,600 -48 Level New York TRACON
Tue 01:02:03 PM 40.9000 -72.6167 246° West 173 199 6,500 -50 Descending New York TRACON
Tue 01:03:03 PM 40.8833 -72.6833 252° West 170 196 6,500 50 Level New York TRACON
Tue 01:04:03 PM 40.8667 -72.7333 246° West 168 193 6,600  Climbing New York TRACON
Tue 01:05:03 PM 40.8667 -72.8000 270° West 172 198 6,500 -50 Descending New York TRACON
Tue 01:06:03 PM 40.8500 -72.8667 252° West 169 194 6,500  Level New York TRACON
Tue 01:07:03 PM 40.8333 -72.9167 246° West 169 194 6,500  Level New York TRACON
Tue 01:07:57 PM 40.8167 -72.9667 246° West 166 191 6,500  Level New York TRACON
Tue 01:09:03 PM 40.8000 -73.0333 252° West 174 200 6,500 48 Level New York TRACON
Tue 01:10:03 PM 40.7833 -73.1000 252° West 171 197 6,600  Climbing New York TRACON
Tue 01:11:03 PM 40.7833 -73.1667 270° West 176 203 6,500 -50 Descending New York TRACON
Tue 01:12:03 PM 40.7667 -73.2167 246° West 166 191 6,500  Level New York TRACON
Tue 01:13:03 PM 40.7500 -73.2833 252° West 173 199 6,500  Level New York TRACON
Tue 01:14:03 PM 40.7333 -73.3500 252° West 171 197 6,500  Level New York TRACON
Tue 01:15:03 PM 40.7167 -73.4000 246° West 176 203 6,500  Level New York TRACON
Tue 01:15:57 PM 40.7167 -73.4500 270° West 167 192 6,500  Level New York TRACON
Tue 01:16:57 PM 40.7000 -73.5167 252° West 166 191 6,500  Level New York TRACON
Tue 01:17:57 PM 40.6833 -73.5667 246° West 166 191 6,500  Level New York TRACON
Tue 01:18:57 PM 40.6667 -73.6333 252° West 166 191 6,500  Level New York TRACON
Tue 01:19:57 PM 40.6667 -73.6833 270° West 163 188 6,500 50 Level New York TRACON
Tue 01:20:57 PM 40.6500 -73.7500 252° West 150 173 6,600 33 Climbing New York TRACON
Tue 01:22:00 PM 40.6215 -73.7976 232° Southwest  Level FlightAware Approximate
Tue 01:22:57 PM 40.5833 -73.8333 232° Southwest 169 194 6,600  Level New York TRACON
Tue 01:23:57 PM 40.5500 -73.8833 229° Southwest 168 193 6,500 -50 Descending New York TRACON
Tue 01:24:57 PM 40.5333 -73.9333 246° West 171 197 6,500  Level New York TRACON
Tue 01:25:57 PM 40.5000 -73.9833 229° Southwest 173 199 6,500  Level New York TRACON
Tue 01:26:57 PM 40.4833 -74.0333 246° West 170 196 6,500  Level New York TRACON
Tue 01:27:57 PM 40.4500 -74.0833 229° Southwest 168 193 6,500 50 Level New York TRACON
Tue 01:28:57 PM 40.4333 -74.1333 246° West 166 191 6,600  Climbing New York TRACON
Tue 01:29:57 PM 40.4000 -74.2000 237° Southwest 165 190 6,500 -50 Descending New York TRACON
Tue 01:30:57 PM 40.3833 -74.2500 246° West 166 191 6,500  Level New York TRACON
Tue 01:31:57 PM 40.3500 -74.3000 229° Southwest 170 196 6,500 50 Level New York TRACON
Tue 01:32:58 PM 40.3333 -74.3500 246° West 167 192 6,600 14 Climbing New York TRACON
Tue 01:35:00 PM 40.2682 -74.4372 226° Southwest  Level FlightAware Approximate
Tue 01:38:55 PM 40.1833 -74.6500 237° Southwest 171 197 6,600  Level Philadelphia TRACON
Tue 01:39:19 PM 40.1667 -74.6667 217° Southwest 173 199 6,600  Level Philadelphia TRACON
Tue 01:40:19 PM 40.1333 -74.7333 237° Southwest 171 197 6,600  Level Philadelphia TRACON
Tue 01:41:19 PM 40.1333 -74.7833 270° West 169 194 6,600 -52 Level Philadelphia TRACON
Tue 01:42:00 PM 40.0510 -74.7482 237° Southwest  Level FlightAware Approximate
Tue 01:42:14 PM 40.1167 -74.8333 246° West 167 192 6,500  Level Philadelphia TRACON
Tue 01:43:00 PM 40.0260 -74.7983 237° Southwest  Level FlightAware Approximate
Tue 01:43:13 PM 40.1000 -74.9000 252° West 167 192 6,500  Level Philadelphia TRACON
Tue 01:44:00 PM 40.0010 -74.8483 237° Southwest  Level FlightAware Approximate
Tue 01:44:19 PM 40.0833 -74.9667 252° West 166 191 6,500  Level Philadelphia TRACON
Tue 01:45:20 PM 40.0667 -75.0167 246° West 163 188 6,500  Level Philadelphia TRACON
Tue 01:46:20 PM 40.0667 -75.0667 270° West 168 193 6,500  Level Philadelphia TRACON
Tue 01:47:26 PM 40.0500 -75.1333 252° West 167 192 6,500  Level Philadelphia TRACON
Tue 01:48:20 PM 40.0333 -75.1833 246° West 168 193 6,500  Level Philadelphia TRACON
Tue 01:49:20 PM 40.0167 -75.2500 252° West 168 193 6,500  Level Philadelphia TRACON
Tue 01:50:26 PM 40.0000 -75.3167 252° West 169 194 6,500  Level Philadelphia TRACON
Tue 01:51:20 PM 40.0000 -75.3667 270° West 167 192 6,500  Level Philadelphia TRACON
Tue 01:52:27 PM 39.9833 -75.4333 252° West 168 193 6,500  Level Philadelphia TRACON
Tue 01:53:26 PM 39.9667 -75.4833 247° West 168 193 6,500 50 Level Philadelphia TRACON
Tue 01:54:27 PM 39.9500 -75.5500 252° West 168 193 6,600  Climbing Philadelphia TRACON
Tue 01:55:27 PM 39.9333 -75.6000 247° West 168 193 6,500  Descending Philadelphia TRACON
Tue 01:56:21 PM 39.9167 -75.6500 247° West 178 205 6,600 53 Climbing Philadelphia TRACON
Tue 01:57:21 PM 39.8667 -75.7000 218° Southwest 175 201 6,600  Level Philadelphia TRACON
Tue 01:58:33 PM 39.8333 -75.7500 229° Southwest 171 197 6,600 -50 Level Philadelphia TRACON
Tue 01:59:21 PM 39.8167 -75.7833 237° Southwest 176 203 6,500 -56 Descending Philadelphia TRACON
Tue 02:00:21 PM 39.7833 -75.8333 229° Southwest 170 196 6,500  Level Philadelphia TRACON
Tue 02:01:27 PM 39.7333 -75.8833 218° Southwest 174 200 6,500 50 Level Philadelphia TRACON
Tue 02:02:21 PM 39.7167 -75.9167 237° Southwest 169 194 6,600  Climbing Philadelphia TRACON
Tue 02:03:22 PM 39.6833 -75.9667 229° Southwest 171 197 6,500 -298 Descending Philadelphia TRACON
Tue 02:04:22 PM 39.6500 -76.0167 229° Southwest 186 214 6,000 -586 Descending Philadelphia TRACON
Tue 02:06:16 PM 39.5833 -76.1167 229° Southwest 188 216 4,800 -586 Descending Potomac TRACON
Tue 02:07:16 PM 39.5500 -76.1667 229° Southwest 183 211 4,300 -550 Descending Potomac TRACON
Tue 02:08:16 PM 39.5333 -76.2167 247° West 178 205 3,700 -674 Descending Potomac TRACON
Tue 02:10:00 PM 39.4654 -76.2813 229° Southwest  Level Estimated
Tue 02:11:34 PM 39.4167 -76.3667 229° Southwest 173 199 1,400  Level Potomac TRACON
Tue 02:12:29 PM 39.3833 -76.4000 218° Southwest 151 174 1,100 -248 Descending Potomac TRACON
Tue 02:13:35 PM 39.3500 -76.4167 201° Southwest 111 128 900 -95 Descending Potomac TRACON
Tue 02:14:35 PM 39.3333 -76.4000 142° Southeast 95 109 900 -300 Level Potomac TRACON
Tue 02:15:35 PM 39.3167 -76.4000 180° South 98 113 300 -600 Descending Potomac TRACON
Tue 02:17:00 PM 39.3257 -76.4138 North  Level Estimated
Tue 02:24:00 PM 39.3257 -76.4138 223° Southwest  Level Estimated
Tue 02:25:00 PM 39.3257 -76.4138 223° Southwest  Level Estimated
Tue 02:26:00 PM 39.3257 -76.4138 223° Southwest  Level Estimated
Tue 02:27:00 PM 39.3257 -76.4138 223° Southwest  Level Estimated
Tue 02:28:00 PM 39.3257 -76.4138 223° Southwest  Level Estimated
Tue 02:29:00 PM 39.3257 -76.4138 223° Southwest  Level Estimated
Tue 02:30:00 PM 39.3257 -76.4138 223° Southwest  Level Estimated
Tue 02:31:00 PM 39.3257 -76.4138 223° Southwest  Level Estimated
Tue 02:32:00 PM 39.3257 -76.4138 223° Southwest  Level Estimated

Login

Don't have an account? Register now (free) for customized features, flight alerts, and more!